TimeCST,TemperatureF,Dew PointF,Humidity,Sea Level PressureIn,VisibilityMPH,Wind Direction,Wind SpeedMPH,Gust SpeedMPH,PrecipitationIn,Events,Conditions,WindDirDegrees,DateUTC
12:15 AM,46.8,44.2,91,30.00,7.0,ENE,6.9,-,N/A,,Overcast,60,2012-12-09 06:15:00
12:35 AM,46.9,44.2,90,30.01,7.0,ENE,3.5,-,N/A,,Overcast,60,2012-12-09 06:35:00
12:55 AM,46.6,44.6,93,30.01,7.0,NNW,3.5,-,N/A,,Overcast,330,2012-12-09 06:55:00
1:15 AM,46.0,44.4,94,30.01,5.0,NNE,6.9,-,N/A,,Overcast,20,2012-12-09 07:15:00
1:35 AM,46.0,44.6,95,30.00,5.0,NNE,5.8,-,N/A,,Overcast,30,2012-12-09 07:35:00
1:55 AM,45.9,44.6,95,30.00,5.0,NNE,4.6,-,N/A,,Drizzle,20,2012-12-09 07:55:00
2:15 AM,45.9,44.8,96,29.99,4.0,NE,5.8,-,N/A,Rain,Light Rain,40,2012-12-09 08:15:00
2:35 AM,46.4,45.3,96,29.97,5.0,NE,6.9,-,N/A,,Overcast,50,2012-12-09 08:35:00
2:55 AM,46.6,45.5,96,29.95,5.0,ENE,6.9,-,N/A,,Overcast,60,2012-12-09 08:55:00
3:15 AM,46.6,45.1,95,29.94,5.0,ENE,6.9,-,N/A,,Overcast,70,2012-12-09 09:15:00
3:35 AM,46.8,45.5,95,29.94,5.0,ENE,5.8,-,N/A,,Overcast,60,2012-12-09 09:35:00
3:55 AM,47.3,45.7,94,29.93,5.0,East,4.6,-,N/A,,Overcast,80,2012-12-09 09:55:00
4:15 AM,47.7,46.0,94,29.91,5.0,ENE,6.9,-,N/A,,Overcast,60,2012-12-09 10:15:00
4:35 AM,48.2,46.0,92,29.91,5.0,East,8.1,-,N/A,,Overcast,80,2012-12-09 10:35:00
4:55 AM,48.2,46.4,93,29.90,5.0,East,8.1,-,N/A,,Overcast,90,2012-12-09 10:55:00
5:15 AM,48.6,46.6,93,29.90,5.0,East,6.9,-,N/A,,Overcast,90,2012-12-09 11:15:00
5:35 AM,49.1,46.9,92,29.89,5.0,East,9.2,-,N/A,,Overcast,90,2012-12-09 11:35:00
6:15 AM,49.5,47.7,94,29.89,5.0,East,8.1,-,N/A,,Overcast,100,2012-12-09 12:15:00
6:35 AM,49.6,47.8,94,29.88,5.0,East,9.2,-,N/A,,Overcast,100,2012-12-09 12:35:00
6:55 AM,50.0,48.4,94,29.87,4.0,East,10.4,-,N/A,,Overcast,100,2012-12-09 12:55:00
7:15 AM,50.2,49.1,96,29.86,3.0,East,8.1,-,N/A,Thunderstorm,Overcast,90,2012-12-09 13:15:00
7:35 AM,50.4,48.9,95,29.93,2.5,WNW,16.1,28.8,0.06,Rain-Thunderstorm,Heavy Thunderstorms and Rain,290,2012-12-09 13:35:00
7:55 AM,49.6,48.9,97,29.88,3.0,NE,4.6,-,0.17,Rain-Thunderstorm,Light Thunderstorms and Rain,40,2012-12-09 13:55:00
8:15 AM,50.2,49.3,97,29.87,3.0,East,5.8,-,N/A,,Overcast,100,2012-12-09 14:15:00
8:35 AM,50.9,50.2,97,29.87,2.5,East,5.8,-,N/A,Rain,Light Rain,90,2012-12-09 14:35:00
8:55 AM,51.4,50.9,98,29.86,1.8,East,3.5,-,N/A,,Overcast,100,2012-12-09 14:55:00
9:15 AM,51.4,50.9,98,29.87,1.8,East,5.8,-,N/A,,Overcast,100,2012-12-09 15:15:00
9:35 AM,51.8,51.1,97,29.87,1.8,East,3.5,-,N/A,,Overcast,100,2012-12-09 15:35:00
9:55 AM,51.8,51.3,98,29.87,1.8,ESE,5.8,-,N/A,,Overcast,120,2012-12-09 15:55:00
10:15 AM,52.3,52.0,99,29.87,1.5,SE,3.5,-,N/A,,Overcast,130,2012-12-09 16:15:00
10:35 AM,53.6,53.1,98,29.86,1.5,Calm,Calm,-,N/A,Rain,Light Rain,0,2012-12-09 16:35:00
10:55 AM,54.7,54.3,99,29.85,2.0,South,4.6,-,N/A,,Overcast,180,2012-12-09 16:55:00
11:15 AM,55.6,55.0,98,29.84,3.0,South,8.1,-,N/A,,Overcast,170,2012-12-09 17:15:00
11:35 AM,55.9,55.4,98,29.83,2.5,South,5.8,-,N/A,Rain,Rain,180,2012-12-09 17:35:00
11:55 AM,56.3,55.8,98,29.82,3.0,South,6.9,-,N/A,,Overcast,180,2012-12-09 17:55:00
12:15 PM,57.2,56.3,97,29.81,4.0,SSW,9.2,-,N/A,,Overcast,200,2012-12-09 18:15:00
12:35 PM,57.2,56.5,97,29.80,4.0,South,6.9,-,N/A,,Overcast,180,2012-12-09 18:35:00
12:55 PM,58.1,57.2,97,29.78,5.0,South,6.9,-,N/A,,Overcast,190,2012-12-09 18:55:00
1:15 PM,58.1,56.8,96,29.78,5.0,SSW,10.4,-,N/A,,Overcast,200,2012-12-09 19:15:00
1:35 PM,58.1,56.8,96,29.78,5.0,South,6.9,-,N/A,Rain,Light Rain,180,2012-12-09 19:35:00
1:55 PM,57.9,57.0,97,29.77,4.0,South,5.8,-,0.01,Rain,Light Rain,170,2012-12-09 19:55:00
2:15 PM,57.7,57.2,98,29.77,4.0,South,5.8,-,N/A,,Overcast,170,2012-12-09 20:15:00
2:35 PM,58.1,57.4,97,29.77,5.0,South,4.6,-,N/A,Rain,Light Rain,180,2012-12-09 20:35:00
2:55 PM,58.1,57.2,97,29.78,5.0,SSW,4.6,-,N/A,,Overcast,210,2012-12-09 20:55:00
3:15 PM,57.6,57.2,99,29.78,3.0,Calm,Calm,-,N/A,Rain,Rain,0,2012-12-09 21:15:00
3:35 PM,57.2,56.7,98,29.77,1.8,Calm,Calm,-,N/A,,Light Drizzle,0,2012-12-09 21:35:00
3:55 PM,56.7,56.3,99,29.77,1.2,Calm,Calm,-,0.01,Rain,Rain,0,2012-12-09 21:55:00
4:15 PM,56.5,56.3,99,29.76,1.0,Calm,Calm,-,N/A,Rain,Light Rain,0,2012-12-09 22:15:00
4:35 PM,56.3,55.9,99,29.75,0.5,Calm,Calm,-,N/A,Rain,Rain,0,2012-12-09 22:35:00
4:55 PM,56.3,55.9,99,29.74,1.2,Calm,Calm,-,N/A,,Overcast,0,2012-12-09 22:55:00
5:15 PM,55.9,55.8,99,29.73,1.8,Calm,Calm,-,N/A,,Overcast,0,2012-12-09 23:15:00
5:35 PM,55.6,55.4,99,29.74,1.5,WNW,3.5,-,N/A,,Overcast,300,2012-12-09 23:35:00
5:55 PM,55.0,54.9,99,29.75,1.8,WNW,6.9,-,N/A,,Overcast,290,2012-12-09 23:55:00
6:15 PM,54.5,54.3,99,29.76,1.8,WNW,11.5,-,0.01,Rain,Heavy Rain,290,2012-12-10 00:15:00
6:55 PM,52.7,52.2,98,29.76,5.0,WNW,5.8,10.4,0.05,Rain,Light Rain,300,2012-12-10 00:55:00
7:15 PM,52.3,51.8,98,29.76,7.0,WNW,8.1,-,0.02,Rain,Light Rain,300,2012-12-10 01:15:00
7:35 PM,52.2,51.6,98,29.76,10.0,WNW,6.9,-,0.03,,Overcast,290,2012-12-10 01:35:00
7:55 PM,52.0,51.1,97,29.76,10.0,WNW,6.9,-,0.03,,Overcast,290,2012-12-10 01:55:00
8:15 PM,51.8,50.2,94,29.76,10.0,WNW,10.4,-,N/A,,Overcast,290,2012-12-10 02:15:00
8:35 PM,51.1,49.3,94,29.77,10.0,West,12.7,-,N/A,,Overcast,280,2012-12-10 02:35:00
8:55 PM,50.4,48.7,94,29.78,10.0,West,11.5,17.3,N/A,,Overcast,270,2012-12-10 02:55:00
9:15 PM,49.1,46.8,92,29.79,10.0,West,11.5,-,N/A,,Overcast,280,2012-12-10 03:15:00
9:35 PM,48.4,46.8,94,29.79,7.0,NW,12.7,17.3,N/A,,Overcast,320,2012-12-10 03:35:00
9:55 PM,47.7,45.7,93,29.81,7.0,WNW,13.8,18.4,N/A,,Overcast,300,2012-12-10 03:55:00
10:15 PM,46.6,45.3,95,29.82,4.0,NW,15.0,-,N/A,,Overcast,310,2012-12-10 04:15:00
10:35 PM,46.0,44.8,95,29.82,7.0,WNW,15.0,21.9,N/A,,Overcast,290,2012-12-10 04:35:00
10:55 PM,45.7,43.7,93,29.82,10.0,West,11.5,17.3,N/A,,Overcast,280,2012-12-10 04:55:00
11:15 PM,45.0,42.1,90,29.83,10.0,West,15.0,20.7,N/A,,Overcast,280,2012-12-10 05:15:00